sensor_id;sensor_type;location;lat;lon;timestamp;P1;durP1;ratioP1;P2;durP2;ratioP2
8319;SDS011;4197;42.130;24.746;2024-01-30T00:01:54;12.10;;;6.90;;
8319;SDS011;4197;42.130;24.746;2024-01-30T00:04:22;14.73;;;8.77;;
8319;SDS011;4197;42.130;24.746;2024-01-30T00:06:51;14.47;;;8.53;;
8319;SDS011;4197;42.130;24.746;2024-01-30T00:09:20;13.23;;;8.90;;
8319;SDS011;4197;42.130;24.746;2024-01-30T00:11:48;12.90;;;8.63;;
8319;SDS011;4197;42.130;24.746;2024-01-30T00:14:17;10.83;;;8.53;;
8319;SDS011;4197;42.130;24.746;2024-01-30T00:16:46;15.30;;;8.73;;
8319;SDS011;4197;42.130;24.746;2024-01-30T00:19:15;13.23;;;8.47;;
8319;SDS011;4197;42.130;24.746;2024-01-30T00:21:44;12.27;;;8.40;;
8319;SDS011;4197;42.130;24.746;2024-01-30T00:24:12;12.90;;;8.30;;
8319;SDS011;4197;42.130;24.746;2024-01-30T00:26:40;15.97;;;8.97;;
8319;SDS011;4197;42.130;24.746;2024-01-30T00:29:09;13.13;;;8.03;;
8319;SDS011;4197;42.130;24.746;2024-01-30T00:31:38;13.80;;;8.10;;
8319;SDS011;4197;42.130;24.746;2024-01-30T00:34:07;11.93;;;7.80;;
8319;SDS011;4197;42.130;24.746;2024-01-30T00:36:37;11.50;;;7.73;;
8319;SDS011;4197;42.130;24.746;2024-01-30T00:39:05;11.70;;;7.80;;
8319;SDS011;4197;42.130;24.746;2024-01-30T00:41:35;11.23;;;7.37;;
8319;SDS011;4197;42.130;24.746;2024-01-30T00:44:04;13.87;;;7.90;;
8319;SDS011;4197;42.130;24.746;2024-01-30T00:46:32;13.53;;;8.77;;
8319;SDS011;4197;42.130;24.746;2024-01-30T00:49:01;14.17;;;7.87;;
8319;SDS011;4197;42.130;24.746;2024-01-30T00:51:29;12.70;;;7.80;;
8319;SDS011;4197;42.130;24.746;2024-01-30T00:53:59;12.10;;;8.73;;
8319;SDS011;4197;42.130;24.746;2024-01-30T00:56:27;13.50;;;7.63;;
8319;SDS011;4197;42.130;24.746;2024-01-30T00:58:56;12.57;;;8.03;;
8319;SDS011;4197;42.130;24.746;2024-01-30T01:01:24;10.27;;;7.17;;
8319;SDS011;4197;42.130;24.746;2024-01-30T01:03:52;11.77;;;7.37;;
8319;SDS011;4197;42.130;24.746;2024-01-30T01:06:21;13.17;;;8.17;;
8319;SDS011;4197;42.130;24.746;2024-01-30T01:08:49;13.23;;;7.47;;
8319;SDS011;4197;42.130;24.746;2024-01-30T01:11:19;10.53;;;7.17;;
8319;SDS011;4197;42.130;24.746;2024-01-30T01:13:47;12.73;;;8.07;;
8319;SDS011;4197;42.130;24.746;2024-01-30T01:16:15;13.20;;;7.83;;
8319;SDS011;4197;42.130;24.746;2024-01-30T01:18:44;12.27;;;8.07;;
8319;SDS011;4197;42.130;24.746;2024-01-30T01:21:12;12.37;;;8.43;;
8319;SDS011;4197;42.130;24.746;2024-01-30T01:23:41;12.10;;;7.93;;
8319;SDS011;4197;42.130;24.746;2024-01-30T01:26:09;9.07;;;7.17;;
8319;SDS011;4197;42.130;24.746;2024-01-30T01:28:40;10.73;;;7.67;;
8319;SDS011;4197;42.130;24.746;2024-01-30T01:31:09;9.37;;;6.27;;
8319;SDS011;4197;42.130;24.746;2024-01-30T01:33:37;12.30;;;7.50;;
8319;SDS011;4197;42.130;24.746;2024-01-30T01:36:06;10.13;;;7.70;;
8319;SDS011;4197;42.130;24.746;2024-01-30T01:38:34;14.70;;;9.13;;
8319;SDS011;4197;42.130;24.746;2024-01-30T01:41:02;16.40;;;8.90;;
8319;SDS011;4197;42.130;24.746;2024-01-30T01:43:31;14.83;;;8.23;;
8319;SDS011;4197;42.130;24.746;2024-01-30T01:46:01;12.73;;;8.07;;
8319;SDS011;4197;42.130;24.746;2024-01-30T01:48:29;14.57;;;8.67;;
8319;SDS011;4197;42.130;24.746;2024-01-30T01:50:58;12.73;;;8.63;;
8319;SDS011;4197;42.130;24.746;2024-01-30T01:53:27;11.53;;;8.10;;
8319;SDS011;4197;42.130;24.746;2024-01-30T01:55:56;12.30;;;7.37;;
8319;SDS011;4197;42.130;24.746;2024-01-30T01:58:24;8.13;;;6.53;;
8319;SDS011;4197;42.130;24.746;2024-01-30T02:00:56;11.47;;;6.90;;
8319;SDS011;4197;42.130;24.746;2024-01-30T02:03:27;13.57;;;7.70;;
8319;SDS011;4197;42.130;24.746;2024-01-30T02:05:56;11.33;;;7.70;;
8319;SDS011;4197;42.130;24.746;2024-01-30T02:08:25;15.27;;;7.60;;
8319;SDS011;4197;42.130;24.746;2024-01-30T02:10:54;9.67;;;6.73;;
8319;SDS011;4197;42.130;24.746;2024-01-30T02:13:22;13.33;;;7.40;;
8319;SDS011;4197;42.130;24.746;2024-01-30T02:15:51;10.10;;;7.20;;
8319;SDS011;4197;42.130;24.746;2024-01-30T02:18:19;11.93;;;7.53;;
8319;SDS011;4197;42.130;24.746;2024-01-30T02:20:50;13.40;;;8.10;;
8319;SDS011;4197;42.130;24.746;2024-01-30T02:23:22;14.20;;;7.57;;
8319;SDS011;4197;42.130;24.746;2024-01-30T02:25:52;10.10;;;7.37;;
8319;SDS011;4197;42.130;24.746;2024-01-30T02:28:20;10.60;;;8.17;;
8319;SDS011;4197;42.130;24.746;2024-01-30T02:30:49;14.10;;;8.37;;
8319;SDS011;4197;42.130;24.746;2024-01-30T02:33:17;12.57;;;8.60;;
8319;SDS011;4197;42.130;24.746;2024-01-30T02:35:45;16.37;;;8.33;;
8319;SDS011;4197;42.130;24.746;2024-01-30T02:38:15;13.80;;;8.27;;
8319;SDS011;4197;42.130;24.746;2024-01-30T02:40:44;13.90;;;8.37;;
8319;SDS011;4197;42.130;24.746;2024-01-30T02:43:13;10.13;;;7.20;;
8319;SDS011;4197;42.130;24.746;2024-01-30T02:45:41;11.03;;;7.93;;
8319;SDS011;4197;42.130;24.746;2024-01-30T02:48:10;13.37;;;8.13;;
8319;SDS011;4197;42.130;24.746;2024-01-30T02:50:38;11.27;;;7.27;;
8319;SDS011;4197;42.130;24.746;2024-01-30T02:53:07;13.47;;;8.27;;
8319;SDS011;4197;42.130;24.746;2024-01-30T02:55:35;11.53;;;8.33;;
8319;SDS011;4197;42.130;24.746;2024-01-30T02:58:05;14.10;;;9.30;;
8319;SDS011;4197;42.130;24.746;2024-01-30T03:00:33;13.03;;;8.90;;
8319;SDS011;4197;42.130;24.746;2024-01-30T03:03:02;15.90;;;9.27;;
8319;SDS011;4197;42.130;24.746;2024-01-30T03:05:31;14.00;;;9.17;;
8319;SDS011;4197;42.130;24.746;2024-01-30T03:07:59;12.83;;;8.93;;
8319;SDS011;4197;42.130;24.746;2024-01-30T03:10:28;14.03;;;9.13;;
8319;SDS011;4197;42.130;24.746;2024-01-30T03:12:56;16.53;;;9.10;;
8319;SDS011;4197;42.130;24.746;2024-01-30T03:15:26;12.57;;;9.20;;
8319;SDS011;4197;42.130;24.746;2024-01-30T03:17:54;16.87;;;9.53;;
8319;SDS011;4197;42.130;24.746;2024-01-30T03:20:23;16.03;;;10.40;;
8319;SDS011;4197;42.130;24.746;2024-01-30T03:22:51;14.63;;;8.87;;
8319;SDS011;4197;42.130;24.746;2024-01-30T03:25:21;14.23;;;9.37;;
8319;SDS011;4197;42.130;24.746;2024-01-30T03:27:49;17.43;;;9.80;;
8319;SDS011;4197;42.130;24.746;2024-01-30T03:30:18;14.17;;;8.93;;
8319;SDS011;4197;42.130;24.746;2024-01-30T03:32:48;15.47;;;9.90;;
8319;SDS011;4197;42.130;24.746;2024-01-30T03:35:16;13.73;;;9.30;;
8319;SDS011;4197;42.130;24.746;2024-01-30T03:37:46;16.03;;;10.13;;
8319;SDS011;4197;42.130;24.746;2024-01-30T03:40:14;14.57;;;9.73;;
8319;SDS011;4197;42.130;24.746;2024-01-30T03:42:43;15.63;;;10.07;;
8319;SDS011;4197;42.130;24.746;2024-01-30T03:45:12;17.47;;;10.07;;
8319;SDS011;4197;42.130;24.746;2024-01-30T03:47:40;13.47;;;8.93;;
8319;SDS011;4197;42.130;24.746;2024-01-30T03:50:13;15.87;;;9.67;;
8319;SDS011;4197;42.130;24.746;2024-01-30T03:52:41;15.37;;;10.20;;
8319;SDS011;4197;42.130;24.746;2024-01-30T03:55:10;17.50;;;9.40;;
8319;SDS011;4197;42.130;24.746;2024-01-30T03:57:38;17.57;;;9.30;;
8319;SDS011;4197;42.130;24.746;2024-01-30T04:00:07;14.53;;;8.97;;
8319;SDS011;4197;42.130;24.746;2024-01-30T04:02:36;16.30;;;9.63;;
8319;SDS011;4197;42.130;24.746;2024-01-30T04:05:05;13.87;;;8.63;;
8319;SDS011;4197;42.130;24.746;2024-01-30T04:07:35;16.57;;;10.20;;
8319;SDS011;4197;42.130;24.746;2024-01-30T04:10:04;15.37;;;9.73;;
8319;SDS011;4197;42.130;24.746;2024-01-30T04:12:33;18.77;;;10.40;;
8319;SDS011;4197;42.130;24.746;2024-01-30T04:15:02;15.67;;;9.13;;
8319;SDS011;4197;42.130;24.746;2024-01-30T04:17:30;15.03;;;9.43;;
8319;SDS011;4197;42.130;24.746;2024-01-30T04:19:59;14.00;;;9.00;;
8319;SDS011;4197;42.130;24.746;2024-01-30T04:22:27;19.40;;;9.57;;
8319;SDS011;4197;42.130;24.746;2024-01-30T04:24:57;13.83;;;9.83;;
8319;SDS011;4197;42.130;24.746;2024-01-30T04:27:26;14.37;;;9.90;;
8319;SDS011;4197;42.130;24.746;2024-01-30T04:29:54;14.53;;;9.53;;
8319;SDS011;4197;42.130;24.746;2024-01-30T04:32:22;16.20;;;10.73;;
8319;SDS011;4197;42.130;24.746;2024-01-30T04:34:51;17.93;;;12.07;;
8319;SDS011;4197;42.130;24.746;2024-01-30T04:37:19;17.53;;;11.30;;
8319;SDS011;4197;42.130;24.746;2024-01-30T04:39:48;16.67;;;10.83;;
8319;SDS011;4197;42.130;24.746;2024-01-30T04:42:17;22.30;;;12.10;;
8319;SDS011;4197;42.130;24.746;2024-01-30T04:44:46;23.20;;;12.33;;
8319;SDS011;4197;42.130;24.746;2024-01-30T04:47:14;21.63;;;11.83;;
8319;SDS011;4197;42.130;24.746;2024-01-30T04:49:42;22.57;;;12.20;;
8319;SDS011;4197;42.130;24.746;2024-01-30T04:52:11;24.10;;;14.07;;
8319;SDS011;4197;42.130;24.746;2024-01-30T04:54:40;22.63;;;12.13;;
8319;SDS011;4197;42.130;24.746;2024-01-30T04:57:08;19.83;;;12.93;;
8319;SDS011;4197;42.130;24.746;2024-01-30T04:59:40;18.57;;;12.47;;
8319;SDS011;4197;42.130;24.746;2024-01-30T05:02:08;24.93;;;13.17;;
8319;SDS011;4197;42.130;24.746;2024-01-30T05:04:37;26.20;;;14.67;;
8319;SDS011;4197;42.130;24.746;2024-01-30T05:07:05;25.93;;;13.20;;
8319;SDS011;4197;42.130;24.746;2024-01-30T05:09:34;18.67;;;12.77;;
8319;SDS011;4197;42.130;24.746;2024-01-30T05:12:02;18.97;;;12.80;;
8319;SDS011;4197;42.130;24.746;2024-01-30T05:14:31;20.03;;;13.33;;
8319;SDS011;4197;42.130;24.746;2024-01-30T05:17:00;20.77;;;11.50;;
8319;SDS011;4197;42.130;24.746;2024-01-30T05:19:29;19.53;;;11.53;;
8319;SDS011;4197;42.130;24.746;2024-01-30T05:21:58;15.43;;;9.73;;
8319;SDS011;4197;42.130;24.746;2024-01-30T05:24:26;15.57;;;9.87;;
8319;SDS011;4197;42.130;24.746;2024-01-30T05:26:54;32.63;;;19.40;;
8319;SDS011;4197;42.130;24.746;2024-01-30T05:29:23;25.00;;;16.17;;
8319;SDS011;4197;42.130;24.746;2024-01-30T05:31:52;31.10;;;14.20;;
8319;SDS011;4197;42.130;24.746;2024-01-30T05:34:21;23.53;;;14.77;;
8319;SDS011;4197;42.130;24.746;2024-01-30T05:36:50;27.97;;;13.57;;
8319;SDS011;4197;42.130;24.746;2024-01-30T05:39:18;19.63;;;12.00;;
8319;SDS011;4197;42.130;24.746;2024-01-30T05:41:47;21.17;;;12.93;;
8319;SDS011;4197;42.130;24.746;2024-01-30T05:44:15;19.13;;;12.43;;
8319;SDS011;4197;42.130;24.746;2024-01-30T05:46:44;30.13;;;16.00;;
8319;SDS011;4197;42.130;24.746;2024-01-30T05:49:12;27.03;;;14.67;;
8319;SDS011;4197;42.130;24.746;2024-01-30T05:51:42;24.80;;;14.30;;
8319;SDS011;4197;42.130;24.746;2024-01-30T05:54:11;30.33;;;16.43;;
8319;SDS011;4197;42.130;24.746;2024-01-30T05:56:43;25.07;;;15.23;;
8319;SDS011;4197;42.130;24.746;2024-01-30T05:59:11;28.50;;;17.03;;
8319;SDS011;4197;42.130;24.746;2024-01-30T06:01:45;26.07;;;15.37;;
8319;SDS011;4197;42.130;24.746;2024-01-30T06:04:14;28.83;;;14.23;;
8319;SDS011;4197;42.130;24.746;2024-01-30T06:06:44;22.53;;;13.77;;
8319;SDS011;4197;42.130;24.746;2024-01-30T06:09:12;24.50;;;14.20;;
8319;SDS011;4197;42.130;24.746;2024-01-30T06:11:41;30.17;;;14.13;;
8319;SDS011;4197;42.130;24.746;2024-01-30T06:14:09;22.97;;;12.67;;
8319;SDS011;4197;42.130;24.746;2024-01-30T06:16:38;28.87;;;14.07;;
8319;SDS011;4197;42.130;24.746;2024-01-30T06:19:06;24.27;;;13.23;;
8319;SDS011;4197;42.130;24.746;2024-01-30T06:21:37;22.50;;;12.83;;
8319;SDS011;4197;42.130;24.746;2024-01-30T06:24:06;21.10;;;12.13;;
8319;SDS011;4197;42.130;24.746;2024-01-30T06:26:35;19.77;;;11.40;;
8319;SDS011;4197;42.130;24.746;2024-01-30T06:29:04;18.57;;;11.43;;
8319;SDS011;4197;42.130;24.746;2024-01-30T06:31:32;22.20;;;11.23;;
8319;SDS011;4197;42.130;24.746;2024-01-30T06:34:00;17.13;;;11.03;;
8319;SDS011;4197;42.130;24.746;2024-01-30T06:36:29;19.00;;;11.50;;
8319;SDS011;4197;42.130;24.746;2024-01-30T06:38:57;25.40;;;11.70;;
8319;SDS011;4197;42.130;24.746;2024-01-30T06:41:27;19.80;;;11.87;;
8319;SDS011;4197;42.130;24.746;2024-01-30T06:43:55;18.30;;;11.50;;
8319;SDS011;4197;42.130;24.746;2024-01-30T06:46:24;16.43;;;10.93;;
8319;SDS011;4197;42.130;24.746;2024-01-30T06:48:53;20.90;;;12.07;;
8319;SDS011;4197;42.130;24.746;2024-01-30T06:51:22;19.50;;;11.33;;
8319;SDS011;4197;42.130;24.746;2024-01-30T06:53:50;23.10;;;12.77;;
8319;SDS011;4197;42.130;24.746;2024-01-30T06:56:20;17.50;;;11.63;;
8319;SDS011;4197;42.130;24.746;2024-01-30T06:58:51;25.17;;;12.13;;
8319;SDS011;4197;42.130;24.746;2024-01-30T07:01:19;22.33;;;13.13;;
8319;SDS011;4197;42.130;24.746;2024-01-30T07:03:48;30.90;;;12.40;;
8319;SDS011;4197;42.130;24.746;2024-01-30T07:06:17;22.43;;;12.83;;
8319;SDS011;4197;42.130;24.746;2024-01-30T07:08:45;23.27;;;12.83;;
8319;SDS011;4197;42.130;24.746;2024-01-30T07:11:18;22.00;;;11.80;;
8319;SDS011;4197;42.130;24.746;2024-01-30T07:13:48;18.83;;;11.73;;
8319;SDS011;4197;42.130;24.746;2024-01-30T07:16:18;20.53;;;11.73;;
8319;SDS011;4197;42.130;24.746;2024-01-30T07:18:46;30.77;;;13.93;;
8319;SDS011;4197;42.130;24.746;2024-01-30T07:21:15;22.20;;;12.80;;
8319;SDS011;4197;42.130;24.746;2024-01-30T07:23:43;21.10;;;10.70;;
8319;SDS011;4197;42.130;24.746;2024-01-30T07:26:12;15.97;;;10.23;;
8319;SDS011;4197;42.130;24.746;2024-01-30T07:28:40;16.87;;;11.47;;
8319;SDS011;4197;42.130;24.746;2024-01-30T07:31:10;27.77;;;12.40;;
8319;SDS011;4197;42.130;24.746;2024-01-30T07:33:40;19.77;;;12.43;;
8319;SDS011;4197;42.130;24.746;2024-01-30T07:36:09;22.53;;;12.77;;
8319;SDS011;4197;42.130;24.746;2024-01-30T07:38:37;22.23;;;11.90;;
8319;SDS011;4197;42.130;24.746;2024-01-30T07:41:05;18.17;;;11.77;;
8319;SDS011;4197;42.130;24.746;2024-01-30T07:43:34;19.70;;;11.43;;
8319;SDS011;4197;42.130;24.746;2024-01-30T07:46:02;16.77;;;12.57;;
8319;SDS011;4197;42.130;24.746;2024-01-30T07:48:32;17.70;;;11.20;;
8319;SDS011;4197;42.130;24.746;2024-01-30T07:51:03;17.00;;;10.43;;
8319;SDS011;4197;42.130;24.746;2024-01-30T07:53:31;17.77;;;10.77;;
8319;SDS011;4197;42.130;24.746;2024-01-30T07:56:00;20.57;;;11.37;;
8319;SDS011;4197;42.130;24.746;2024-01-30T07:58:29;15.67;;;10.30;;
8319;SDS011;4197;42.130;24.746;2024-01-30T08:00:57;17.97;;;10.17;;
8319;SDS011;4197;42.130;24.746;2024-01-30T08:03:27;14.50;;;10.07;;
8319;SDS011;4197;42.130;24.746;2024-01-30T08:05:55;11.57;;;8.00;;
8319;SDS011;4197;42.130;24.746;2024-01-30T08:08:25;12.77;;;8.33;;
8319;SDS011;4197;42.130;24.746;2024-01-30T08:10:54;14.33;;;8.00;;
8319;SDS011;4197;42.130;24.746;2024-01-30T08:13:23;15.50;;;7.70;;
8319;SDS011;4197;42.130;24.746;2024-01-30T08:15:51;11.53;;;7.57;;
8319;SDS011;4197;42.130;24.746;2024-01-30T08:18:19;17.20;;;10.30;;
8319;SDS011;4197;42.130;24.746;2024-01-30T08:20:48;12.30;;;7.93;;
8319;SDS011;4197;42.130;24.746;2024-01-30T08:23:16;9.93;;;7.63;;
8319;SDS011;4197;42.130;24.746;2024-01-30T08:25:46;11.17;;;8.10;;
8319;SDS011;4197;42.130;24.746;2024-01-30T08:28:14;16.73;;;10.27;;
8319;SDS011;4197;42.130;24.746;2024-01-30T08:30:46;12.67;;;8.47;;
8319;SDS011;4197;42.130;24.746;2024-01-30T08:33:15;12.13;;;7.90;;
8319;SDS011;4197;42.130;24.746;2024-01-30T08:35:43;17.37;;;9.77;;
8319;SDS011;4197;42.130;24.746;2024-01-30T08:38:12;17.10;;;9.60;;
8319;SDS011;4197;42.130;24.746;2024-01-30T08:40:40;14.23;;;8.80;;
8319;SDS011;4197;42.130;24.746;2024-01-30T08:43:10;14.23;;;8.03;;
8319;SDS011;4197;42.130;24.746;2024-01-30T08:45:39;13.70;;;8.37;;
8319;SDS011;4197;42.130;24.746;2024-01-30T08:48:07;14.47;;;8.63;;
8319;SDS011;4197;42.130;24.746;2024-01-30T08:50:36;12.50;;;7.30;;
8319;SDS011;4197;42.130;24.746;2024-01-30T08:53:05;14.27;;;7.63;;
8319;SDS011;4197;42.130;24.746;2024-01-30T08:55:34;18.53;;;7.43;;
8319;SDS011;4197;42.130;24.746;2024-01-30T08:58:03;16.20;;;7.47;;
8319;SDS011;4197;42.130;24.746;2024-01-30T09:00:33;13.80;;;7.57;;
8319;SDS011;4197;42.130;24.746;2024-01-30T09:03:01;18.33;;;8.43;;
8319;SDS011;4197;42.130;24.746;2024-01-30T09:05:30;12.70;;;6.80;;
8319;SDS011;4197;42.130;24.746;2024-01-30T09:07:59;16.40;;;8.60;;
8319;SDS011;4197;42.130;24.746;2024-01-30T09:10:27;11.87;;;6.73;;
8319;SDS011;4197;42.130;24.746;2024-01-30T09:12:55;12.20;;;7.27;;
8319;SDS011;4197;42.130;24.746;2024-01-30T09:15:24;16.73;;;11.30;;
8319;SDS011;4197;42.130;24.746;2024-01-30T09:17:53;12.93;;;8.03;;
8319;SDS011;4197;42.130;24.746;2024-01-30T09:20:22;11.33;;;7.90;;
8319;SDS011;4197;42.130;24.746;2024-01-30T09:22:50;14.87;;;11.13;;
8319;SDS011;4197;42.130;24.746;2024-01-30T09:25:19;19.67;;;12.20;;
8319;SDS011;4197;42.130;24.746;2024-01-30T09:27:47;19.47;;;11.47;;
8319;SDS011;4197;42.130;24.746;2024-01-30T09:30:16;10.67;;;7.40;;
8319;SDS011;4197;42.130;24.746;2024-01-30T09:32:44;11.50;;;7.07;;
8319;SDS011;4197;42.130;24.746;2024-01-30T09:35:14;12.83;;;6.93;;
8319;SDS011;4197;42.130;24.746;2024-01-30T09:37:46;17.07;;;7.17;;
8319;SDS011;4197;42.130;24.746;2024-01-30T09:40:14;19.43;;;11.63;;
8319;SDS011;4197;42.130;24.746;2024-01-30T09:42:46;31.20;;;16.57;;
8319;SDS011;4197;42.130;24.746;2024-01-30T09:45:17;12.73;;;8.73;;
8319;SDS011;4197;42.130;24.746;2024-01-30T09:47:46;11.53;;;8.53;;
8319;SDS011;4197;42.130;24.746;2024-01-30T09:50:16;14.20;;;9.73;;
8319;SDS011;4197;42.130;24.746;2024-01-30T09:52:45;25.10;;;11.80;;
8319;SDS011;4197;42.130;24.746;2024-01-30T09:55:14;17.57;;;11.60;;
8319;SDS011;4197;42.130;24.746;2024-01-30T09:57:43;22.40;;;11.10;;
8319;SDS011;4197;42.130;24.746;2024-01-30T10:00:12;16.63;;;10.63;;
8319;SDS011;4197;42.130;24.746;2024-01-30T10:02:41;15.10;;;10.30;;
8319;SDS011;4197;42.130;24.746;2024-01-30T10:05:10;16.43;;;9.30;;
8319;SDS011;4197;42.130;24.746;2024-01-30T10:07:52;16.37;;;8.83;;
8319;SDS011;4197;42.130;24.746;2024-01-30T10:10:22;17.80;;;9.90;;
8319;SDS011;4197;42.130;24.746;2024-01-30T10:12:51;20.10;;;10.80;;
8319;SDS011;4197;42.130;24.746;2024-01-30T10:15:19;15.30;;;9.63;;
8319;SDS011;4197;42.130;24.746;2024-01-30T10:17:48;13.30;;;8.83;;
8319;SDS011;4197;42.130;24.746;2024-01-30T10:20:17;16.20;;;9.30;;
8319;SDS011;4197;42.130;24.746;2024-01-30T10:22:46;17.30;;;9.57;;
8319;SDS011;4197;42.130;24.746;2024-01-30T10:25:16;21.53;;;10.53;;
8319;SDS011;4197;42.130;24.746;2024-01-30T10:27:46;16.60;;;9.83;;
8319;SDS011;4197;42.130;24.746;2024-01-30T10:30:15;15.93;;;8.43;;
8319;SDS011;4197;42.130;24.746;2024-01-30T10:32:43;15.40;;;8.37;;
8319;SDS011;4197;42.130;24.746;2024-01-30T10:35:12;11.30;;;8.23;;
8319;SDS011;4197;42.130;24.746;2024-01-30T10:37:42;14.37;;;7.97;;
8319;SDS011;4197;42.130;24.746;2024-01-30T10:40:12;9.93;;;7.57;;
8319;SDS011;4197;42.130;24.746;2024-01-30T10:42:44;15.37;;;9.30;;
8319;SDS011;4197;42.130;24.746;2024-01-30T10:45:14;11.07;;;7.97;;
8319;SDS011;4197;42.130;24.746;2024-01-30T10:47:43;12.07;;;7.33;;
8319;SDS011;4197;42.130;24.746;2024-01-30T10:50:16;13.13;;;7.20;;
8319;SDS011;4197;42.130;24.746;2024-01-30T10:52:45;9.73;;;6.60;;
8319;SDS011;4197;42.130;24.746;2024-01-30T10:55:15;14.73;;;7.03;;
8319;SDS011;4197;42.130;24.746;2024-01-30T10:57:47;13.57;;;6.60;;
8319;SDS011;4197;42.130;24.746;2024-01-30T11:00:16;9.27;;;7.07;;
8319;SDS011;4197;42.130;24.746;2024-01-30T11:02:46;11.13;;;7.23;;
8319;SDS011;4197;42.130;24.746;2024-01-30T11:05:23;10.53;;;7.00;;
8319;SDS011;4197;42.130;24.746;2024-01-30T11:07:58;10.30;;;6.63;;
8319;SDS011;4197;42.130;24.746;2024-01-30T11:10:27;9.50;;;6.47;;
8319;SDS011;4197;42.130;24.746;2024-01-30T11:12:58;12.03;;;6.27;;
8319;SDS011;4197;42.130;24.746;2024-01-30T11:15:26;20.87;;;7.93;;
8319;SDS011;4197;42.130;24.746;2024-01-30T11:17:58;10.90;;;7.63;;
8319;SDS011;4197;42.130;24.746;2024-01-30T11:20:27;7.43;;;5.63;;
8319;SDS011;4197;42.130;24.746;2024-01-30T11:22:58;9.73;;;6.23;;
8319;SDS011;4197;42.130;24.746;2024-01-30T11:25:28;10.03;;;6.37;;
8319;SDS011;4197;42.130;24.746;2024-01-30T11:28:01;9.70;;;7.23;;
8319;SDS011;4197;42.130;24.746;2024-01-30T11:30:30;8.53;;;6.13;;
8319;SDS011;4197;42.130;24.746;2024-01-30T11:33:04;9.10;;;6.53;;
8319;SDS011;4197;42.130;24.746;2024-01-30T11:35:35;10.33;;;6.03;;
8319;SDS011;4197;42.130;24.746;2024-01-30T11:38:06;14.50;;;5.60;;
8319;SDS011;4197;42.130;24.746;2024-01-30T11:40:36;7.40;;;5.27;;
8319;SDS011;4197;42.130;24.746;2024-01-30T11:43:08;8.93;;;5.90;;
8319;SDS011;4197;42.130;24.746;2024-01-30T11:45:38;6.80;;;4.97;;
8319;SDS011;4197;42.130;24.746;2024-01-30T11:48:07;8.97;;;5.70;;
8319;SDS011;4197;42.130;24.746;2024-01-30T11:50:38;7.03;;;4.87;;
8319;SDS011;4197;42.130;24.746;2024-01-30T11:53:11;4.07;;;3.50;;
8319;SDS011;4197;42.130;24.746;2024-01-30T11:55:39;4.33;;;3.47;;
8319;SDS011;4197;42.130;24.746;2024-01-30T11:58:09;5.57;;;4.00;;
8319;SDS011;4197;42.130;24.746;2024-01-30T12:00:38;6.47;;;4.53;;
8319;SDS011;4197;42.130;24.746;2024-01-30T12:03:06;5.60;;;3.97;;
8319;SDS011;4197;42.130;24.746;2024-01-30T12:05:35;5.47;;;3.73;;
8319;SDS011;4197;42.130;24.746;2024-01-30T12:08:14;7.03;;;4.60;;
8319;SDS011;4197;42.130;24.746;2024-01-30T12:10:43;5.53;;;4.23;;
8319;SDS011;4197;42.130;24.746;2024-01-30T12:13:12;6.97;;;4.27;;
8319;SDS011;4197;42.130;24.746;2024-01-30T12:15:42;6.50;;;4.70;;
8319;SDS011;4197;42.130;24.746;2024-01-30T12:18:10;6.57;;;5.00;;
8319;SDS011;4197;42.130;24.746;2024-01-30T12:20:39;6.47;;;5.23;;
8319;SDS011;4197;42.130;24.746;2024-01-30T12:23:07;5.73;;;3.93;;
8319;SDS011;4197;42.130;24.746;2024-01-30T12:25:36;6.07;;;4.63;;
8319;SDS011;4197;42.130;24.746;2024-01-30T12:28:05;7.50;;;4.53;;
8319;SDS011;4197;42.130;24.746;2024-01-30T12:30:35;7.40;;;4.70;;
8319;SDS011;4197;42.130;24.746;2024-01-30T12:33:04;7.17;;;4.93;;
8319;SDS011;4197;42.130;24.746;2024-01-30T12:35:35;7.30;;;4.80;;
8319;SDS011;4197;42.130;24.746;2024-01-30T12:38:14;12.17;;;5.40;;
8319;SDS011;4197;42.130;24.746;2024-01-30T12:40:43;9.70;;;4.83;;
8319;SDS011;4197;42.130;24.746;2024-01-30T12:43:11;11.67;;;4.67;;
8319;SDS011;4197;42.130;24.746;2024-01-30T12:45:58;6.90;;;4.60;;
8319;SDS011;4197;42.130;24.746;2024-01-30T12:48:28;6.07;;;4.40;;
8319;SDS011;4197;42.130;24.746;2024-01-30T12:50:56;9.30;;;4.97;;
8319;SDS011;4197;42.130;24.746;2024-01-30T12:53:26;13.27;;;5.17;;
8319;SDS011;4197;42.130;24.746;2024-01-30T12:55:55;6.70;;;4.83;;
8319;SDS011;4197;42.130;24.746;2024-01-30T12:58:24;5.03;;;4.17;;
8319;SDS011;4197;42.130;24.746;2024-01-30T13:00:53;10.17;;;5.30;;
8319;SDS011;4197;42.130;24.746;2024-01-30T13:03:23;7.87;;;4.80;;
8319;SDS011;4197;42.130;24.746;2024-01-30T13:05:52;10.00;;;6.37;;
8319;SDS011;4197;42.130;24.746;2024-01-30T13:08:21;15.53;;;6.60;;
8319;SDS011;4197;42.130;24.746;2024-01-30T13:10:49;12.27;;;6.43;;
8319;SDS011;4197;42.130;24.746;2024-01-30T13:13:18;8.87;;;6.07;;
8319;SDS011;4197;42.130;24.746;2024-01-30T13:15:46;8.53;;;6.47;;
8319;SDS011;4197;42.130;24.746;2024-01-30T13:18:15;9.83;;;5.80;;
8319;SDS011;4197;42.130;24.746;2024-01-30T13:20:45;10.37;;;6.20;;
8319;SDS011;4197;42.130;24.746;2024-01-30T13:23:14;12.03;;;7.40;;
8319;SDS011;4197;42.130;24.746;2024-01-30T13:25:42;13.43;;;7.17;;
8319;SDS011;4197;42.130;24.746;2024-01-30T13:28:11;8.73;;;5.63;;
8319;SDS011;4197;42.130;24.746;2024-01-30T13:30:39;18.13;;;7.63;;
8319;SDS011;4197;42.130;24.746;2024-01-30T13:33:08;15.57;;;7.63;;
8319;SDS011;4197;42.130;24.746;2024-01-30T13:35:36;20.40;;;8.90;;
8319;SDS011;4197;42.130;24.746;2024-01-30T13:38:07;18.87;;;9.70;;
8319;SDS011;4197;42.130;24.746;2024-01-30T13:40:36;15.20;;;8.90;;
8319;SDS011;4197;42.130;24.746;2024-01-30T13:43:05;15.93;;;9.40;;
8319;SDS011;4197;42.130;24.746;2024-01-30T13:45:33;15.73;;;8.17;;
8319;SDS011;4197;42.130;24.746;2024-01-30T13:48:02;8.77;;;6.93;;
8319;SDS011;4197;42.130;24.746;2024-01-30T13:50:30;12.37;;;6.07;;
8319;SDS011;4197;42.130;24.746;2024-01-30T13:52:59;9.70;;;5.97;;
8319;SDS011;4197;42.130;24.746;2024-01-30T13:55:29;10.93;;;6.37;;
8319;SDS011;4197;42.130;24.746;2024-01-30T13:57:58;9.53;;;5.93;;
8319;SDS011;4197;42.130;24.746;2024-01-30T14:00:28;16.13;;;7.40;;
8319;SDS011;4197;42.130;24.746;2024-01-30T14:02:56;10.83;;;7.20;;
8319;SDS011;4197;42.130;24.746;2024-01-30T14:05:25;8.77;;;6.10;;
8319;SDS011;4197;42.130;24.746;2024-01-30T14:07:55;11.23;;;6.90;;
8319;SDS011;4197;42.130;24.746;2024-01-30T14:10:27;19.47;;;8.93;;
8319;SDS011;4197;42.130;24.746;2024-01-30T14:12:57;12.50;;;8.07;;
8319;SDS011;4197;42.130;24.746;2024-01-30T14:15:26;12.37;;;7.47;;
8319;SDS011;4197;42.130;24.746;2024-01-30T14:17:55;12.60;;;6.53;;
8319;SDS011;4197;42.130;24.746;2024-01-30T14:20:25;8.27;;;5.33;;
8319;SDS011;4197;42.130;24.746;2024-01-30T14:22:54;7.60;;;5.40;;
8319;SDS011;4197;42.130;24.746;2024-01-30T14:25:23;10.47;;;5.53;;
8319;SDS011;4197;42.130;24.746;2024-01-30T14:27:52;9.97;;;5.83;;
8319;SDS011;4197;42.130;24.746;2024-01-30T14:30:22;8.43;;;5.63;;
8319;SDS011;4197;42.130;24.746;2024-01-30T14:32:50;12.77;;;6.90;;
8319;SDS011;4197;42.130;24.746;2024-01-30T14:35:19;11.60;;;7.03;;
8319;SDS011;4197;42.130;24.746;2024-01-30T14:37:48;11.33;;;6.63;;
8319;SDS011;4197;42.130;24.746;2024-01-30T14:40:17;11.30;;;7.17;;
8319;SDS011;4197;42.130;24.746;2024-01-30T14:42:46;13.93;;;6.37;;
8319;SDS011;4197;42.130;24.746;2024-01-30T14:45:14;14.73;;;5.83;;
8319;SDS011;4197;42.130;24.746;2024-01-30T14:47:45;13.03;;;6.80;;
8319;SDS011;4197;42.130;24.746;2024-01-30T14:50:14;12.17;;;6.27;;
8319;SDS011;4197;42.130;24.746;2024-01-30T14:52:43;8.17;;;5.20;;
8319;SDS011;4197;42.130;24.746;2024-01-30T14:55:12;12.40;;;7.50;;
8319;SDS011;4197;42.130;24.746;2024-01-30T14:57:41;8.83;;;6.17;;